Terminal Aerodrome Forecast
Issued by NWS Wilmington, NC

Home | Current Version | Previous Version | Text Only | Print | Product List | Glossary On
Versions: 1 2 3 4 5 6 7 8 9 10 11 12 13 14 15 16 17 18 19 20 21 22 23 24 25 26
000
FTUS42 KILM 030500
TAFILM
TAF
KILM 030527Z 0306/0406 05009KT P6SM SCT040 BKN150
     FM031000 05008KT P6SM FEW020 BKN040
     FM031900 07008KT 6SM -RA OVC016
     FM040000 12005KT 4SM BR OVC007=

USA.gov is the U.S. government's official web portal to all federal, state and local government web resources and services.